EGFFEGPE

Guest
Details From EGFF - Cardiff
To EGPE - Inverness
Flight Number -
Tags Generated
Created
Modified
Stats Distance 370 nm / 685 km
Max Altitude 0 ft / 0 m
Waypoints 3
Social Downloads 5
Likes 0
Share VATSIM

Download

Looking for another format? Having issues loading an existing format? Contact us
Advertisement - Login to hide

Notes

Generated

Route

EGFF DAVOT EGPE

ID Type Via Altitude Latitude Longitude Leg Dist Tot Dist Heading (true) Name
O EGFF APT - 0 ft / 0 m 51.40151˚ -3.35867˚ - 0 nm - -
DAVOT FIX - 0 ft / 0 m 57.34500˚ -4.09111˚ 357 nm 357 nm 356° / 356° -
O EGPE APT - 0 ft / 0 m 57.54464˚ -4.05987˚ 12 nm 369 nm 5° / 5° -

Altitude Profile

Advertisement - Login to hide

Weather


0- 5 10 15 20 25 30 35+ Temperature / ° C

Clouds and Precipitation
Forecast for 2018-05-22 12:00 UTC. Updated 5 hours ago

Ground ~20,000 ft ~40,000 ft Winds

EGFF

Details ICAO EGFF (CWL)
Name Cardiff
Region United Kingdom
Timezone Europe/London (UTC+1.0)
Stats Elevation 220 ft / 67 m (AMSL)
Location 51.396565° -3.343202°
Runways 1
Magnetic Variation 1.512° W

METAR

EGFF 221550Z AUTO 27008KT 9999 NCD 19/11 Q1018

Decode

TAF

TAF EGFF 221058Z 2212/2312 24008KT CAVOK PROB40 TEMPO 2212/2301 9000 BECMG 2218/2221 04010KT BECMG 2301/2304 7000 PROB30 2303/2308 4500 HZ BECMG 2309/2312 CAVOK

Decode

Departure Runways

ID Width Length Bearing (true) Bearing (mag) Surface Threshold Offset Overrun Length
12 131 ft / 40 m 7,831 ft / 2,387 m 116.82° 118.33° Asphalt 715 ft / 218 m 0 ft / 0 m
30 131 ft / 40 m 7,831 ft / 2,387 m 296.84° 298.35° Asphalt 594 ft / 181 m 0 ft / 0 m

EGPE

Details ICAO EGPE (INV)
Name Inverness
Region United Kingdom
Timezone Europe/London (UTC+1.0)
Stats Elevation 31 ft / 9 m (AMSL)
Location 57.543039° -4.050944°
Runways 2
Magnetic Variation 2.803° W

METAR

EGPE 221550Z 05012KT 9999 FEW016 BKN021 10/08 Q1027

Decode

TAF

Not found

Destination Runways

ID Width Length Bearing (true) Bearing (mag) Surface Threshold Offset Overrun Length
05 151 ft / 46 m 6,179 ft / 1,883 m 49.39° 52.19° Asphalt 220 ft / 67 m 0 ft / 0 m
12 59 ft / 18 m 2,299 ft / 701 m 109.63° 112.43° Asphalt 0 ft / 0 m 0 ft / 0 m
23 151 ft / 46 m 6,179 ft / 1,883 m 229.41° 232.21° Asphalt 0 ft / 0 m 0 ft / 0 m
30 59 ft / 18 m 2,299 ft / 701 m 289.64° 292.44° Asphalt 0 ft / 0 m 0 ft / 0 m

Approach Navaids

Runway Type Ident Frequency Range Bearing (true) Bearing (mag) Slope Elevation
05 Localiser ILN 108.50 MHz 18 nm / 33 km 49.42° 52.22° - 31 ft / 9 m (AMSL)
05 Glidescope ILN 108.50 MHz 10 nm / 19 km 49.40° 52.21° 3.00° 31 ft / 9 m (AMSL)
05 DME ILN 108.50 MHz 18 nm / 33 km - - - 43 ft / 13 m (AMSL)
23 Localiser IDX 108.50 MHz 18 nm / 33 km 229.39° 232.19° - 31 ft / 9 m (AMSL)
23 Glidescope IDX 108.50 MHz 10 nm / 19 km 229.40° 232.21° 3.00° 31 ft / 9 m (AMSL)
23 DME IDX 108.50 MHz 18 nm / 33 km - - - 43 ft / 13 m (AMSL)

Popular Alternatives